createdAt,value
2022-12-27T00:01:39.378Z,1.20
2022-12-27T00:04:07.535Z,1.20
2022-12-27T00:06:35.579Z,0.90
2022-12-27T00:09:04.385Z,1.10
2022-12-27T00:11:34.232Z,1.17
2022-12-27T00:14:03.240Z,0.80
2022-12-27T00:16:31.691Z,1.00
2022-12-27T00:19:00.140Z,1.07
2022-12-27T00:21:28.364Z,0.73
2022-12-27T00:23:58.086Z,0.60
2022-12-27T00:26:28.068Z,1.03
2022-12-27T00:28:57.950Z,0.90
2022-12-27T00:31:27.160Z,0.83
2022-12-27T00:33:57.615Z,0.87
2022-12-27T00:36:28.343Z,1.13
2022-12-27T00:38:57.396Z,1.10
2022-12-27T00:41:25.885Z,1.20
2022-12-27T00:43:54.353Z,1.27
2022-12-27T00:46:23.886Z,0.70
2022-12-27T00:48:52.126Z,1.10
2022-12-27T00:51:22.511Z,0.90
2022-12-27T00:53:52.113Z,1.50
2022-12-27T00:56:23.963Z,1.80
2022-12-27T00:58:54.408Z,0.93
2022-12-27T01:01:25.436Z,0.97
2022-12-27T01:03:54.117Z,1.03
2022-12-27T01:06:24.410Z,1.83
2022-12-27T01:08:52.527Z,0.90
2022-12-27T01:11:22.193Z,0.93
2022-12-27T01:13:50.372Z,1.27
2022-12-27T01:16:21.679Z,1.13
2022-12-27T01:18:51.229Z,1.03
2022-12-27T01:21:21.044Z,1.10
2022-12-27T01:23:49.799Z,1.27
2022-12-27T01:26:20.070Z,0.93
2022-12-27T01:28:49.247Z,1.07
2022-12-27T01:31:19.490Z,0.97
2022-12-27T01:33:47.705Z,1.20
2022-12-27T01:36:19.154Z,0.93
2022-12-27T01:38:49.062Z,1.00
2022-12-27T01:41:36.493Z,1.00
2022-12-27T01:44:50.329Z,1.13
2022-12-27T01:47:35.557Z,0.77
2022-12-27T01:50:19.242Z,1.20
2022-12-27T01:52:56.518Z,1.30
2022-12-27T01:55:34.027Z,1.90
2022-12-27T01:58:07.863Z,1.27
2022-12-27T02:00:36.690Z,1.40
2022-12-27T02:03:07.170Z,0.80
2022-12-27T02:05:35.954Z,1.20
2022-12-27T02:08:15.633Z,1.20
2022-12-27T02:10:44.508Z,1.20
2022-12-27T02:13:13.106Z,1.10
2022-12-27T02:15:41.120Z,1.30
2022-12-27T02:18:09.256Z,1.40
2022-12-27T02:20:54.059Z,0.73
2022-12-27T02:23:57.477Z,0.80
2022-12-27T02:26:47.568Z,1.17
2022-12-27T02:29:40.556Z,2.27
2022-12-27T02:32:10.314Z,1.00
2022-12-27T02:34:45.453Z,1.57
2022-12-27T02:37:15.019Z,1.20
2022-12-27T02:39:47.167Z,1.40
2022-12-27T02:42:30.962Z,1.20
2022-12-27T02:45:14.294Z,1.50
2022-12-27T02:48:00.207Z,1.33
2022-12-27T02:50:54.296Z,0.90
2022-12-27T02:53:29.869Z,1.10
2022-12-27T02:56:28.074Z,1.30
2022-12-27T02:59:10.698Z,1.20
2022-12-27T03:02:07.532Z,0.90
2022-12-27T03:04:51.814Z,1.27
2022-12-27T03:07:30.436Z,1.23
2022-12-27T03:10:31.226Z,1.17
2022-12-27T03:13:32.422Z,0.80
2022-12-27T03:16:13.115Z,1.20
2022-12-27T03:19:04.479Z,1.30
2022-12-27T03:21:52.930Z,1.27
2022-12-27T03:24:45.142Z,1.47
2022-12-27T03:27:18.987Z,1.00
2022-12-27T03:30:07.265Z,1.00
2022-12-27T03:32:55.536Z,1.40
2022-12-27T03:35:26.915Z,0.80
2022-12-27T03:38:05.199Z,1.20
2022-12-27T03:41:04.002Z,1.10
2022-12-27T03:43:31.898Z,1.20
2022-12-27T03:46:26.893Z,1.20
2022-12-27T03:49:10.076Z,1.10
2022-12-27T03:51:42.923Z,1.03
2022-12-27T03:54:15.797Z,1.13
2022-12-27T03:56:44.017Z,1.23
2022-12-27T03:59:13.290Z,1.20
2022-12-27T04:01:42.527Z,1.20
2022-12-27T04:04:10.672Z,1.57
2022-12-27T04:06:40.079Z,1.17
2022-12-27T04:09:25.470Z,1.03
2022-12-27T04:12:11.074Z,1.10
2022-12-27T04:14:56.618Z,1.20
2022-12-27T04:17:42.180Z,1.03
2022-12-27T04:20:28.177Z,0.97
2022-12-27T04:23:15.481Z,0.83
2022-12-27T04:28:38.444Z,1.10
2022-12-27T04:31:23.906Z,0.93
2022-12-27T04:34:09.265Z,0.97
2022-12-27T04:36:37.289Z,1.10
2022-12-27T04:39:06.904Z,1.10
2022-12-27T04:41:52.113Z,1.00
2022-12-27T04:44:37.648Z,1.20
2022-12-27T04:47:23.604Z,0.97
2022-12-27T04:50:09.059Z,1.37
2022-12-27T04:52:54.577Z,1.07
2022-12-27T04:55:28.075Z,0.97
2022-12-27T04:57:57.184Z,0.93
2022-12-27T05:00:44.548Z,1.03
2022-12-27T05:03:16.414Z,0.97
2022-12-27T05:05:45.634Z,0.90
2022-12-27T05:08:33.275Z,1.10
2022-12-27T05:11:20.491Z,1.00
2022-12-27T05:14:00.624Z,1.27
2022-12-27T05:16:29.694Z,1.40
2022-12-27T05:18:57.958Z,1.30
2022-12-27T05:21:26.158Z,1.50
2022-12-27T05:24:12.176Z,1.17
2022-12-27T05:26:42.140Z,1.30
2022-12-27T05:29:10.159Z,1.20
2022-12-27T05:31:38.190Z,1.10
2022-12-27T05:34:06.440Z,1.40
2022-12-27T05:36:34.761Z,1.37
2022-12-27T05:39:02.890Z,1.47
2022-12-27T05:41:30.897Z,1.03
2022-12-27T05:44:06.800Z,1.10
2022-12-27T05:46:35.728Z,1.20
2022-12-27T05:49:03.852Z,1.13
2022-12-27T05:51:31.869Z,1.20
2022-12-27T05:53:59.876Z,1.20
2022-12-27T05:56:27.818Z,1.17
2022-12-27T05:58:55.816Z,1.17
2022-12-27T06:01:25.171Z,1.27
2022-12-27T06:03:53.162Z,1.40
2022-12-27T06:06:21.133Z,1.03
2022-12-27T06:08:49.090Z,1.23
2022-12-27T06:11:18.762Z,1.30
2022-12-27T06:13:52.193Z,1.50
2022-12-27T06:16:21.914Z,1.20
2022-12-27T06:18:51.444Z,1.17
2022-12-27T06:21:21.710Z,1.47
2022-12-27T06:23:50.372Z,1.27
2022-12-27T06:26:20.352Z,1.00
2022-12-27T06:28:49.457Z,1.53
2022-12-27T06:31:18.214Z,1.47
2022-12-27T06:33:47.206Z,1.47
2022-12-27T06:36:19.202Z,1.40
2022-12-27T06:38:48.090Z,1.60
2022-12-27T06:41:18.372Z,1.23
2022-12-27T06:43:46.974Z,1.20
2022-12-27T06:46:17.907Z,1.10
2022-12-27T06:48:46.449Z,1.20
2022-12-27T06:51:18.029Z,1.47
2022-12-27T06:53:46.089Z,1.30
2022-12-27T06:56:16.515Z,1.10
2022-12-27T06:58:44.671Z,1.13
2022-12-27T07:01:14.495Z,1.90
2022-12-27T07:03:43.014Z,1.10
2022-12-27T07:06:12.921Z,1.53
2022-12-27T07:08:42.273Z,1.40
2022-12-27T07:11:12.118Z,1.20
2022-12-27T07:13:41.731Z,1.10
2022-12-27T07:16:11.871Z,1.40
2022-12-27T07:18:39.970Z,1.20
2022-12-27T07:21:09.533Z,1.20
2022-12-27T07:23:37.959Z,2.00
2022-12-27T07:26:09.187Z,1.50
2022-12-27T07:28:37.618Z,1.30
2022-12-27T07:31:09.057Z,1.20
2022-12-27T07:33:38.215Z,1.20
2022-12-27T07:36:08.493Z,1.30
2022-12-27T07:38:36.477Z,1.27
2022-12-27T07:41:04.918Z,1.40
2022-12-27T07:43:35.325Z,1.77
2022-12-27T07:46:08.524Z,1.50
2022-12-27T07:48:36.909Z,1.10
2022-12-27T07:51:05.700Z,1.10
2022-12-27T07:53:33.894Z,1.20
2022-12-27T07:56:07.405Z,1.40
2022-12-27T07:58:39.294Z,1.33
2022-12-27T08:01:08.208Z,1.27
2022-12-27T08:03:36.751Z,1.43
2022-12-27T08:06:05.823Z,1.20
2022-12-27T08:08:37.986Z,1.43
2022-12-27T08:11:06.608Z,1.43
2022-12-27T08:13:34.612Z,2.03
2022-12-27T08:16:04.442Z,1.23
2022-12-27T08:18:32.654Z,1.07
2022-12-27T08:21:00.606Z,1.50
2022-12-27T08:23:28.545Z,1.33
2022-12-27T08:25:56.567Z,1.03
2022-12-27T08:28:24.608Z,1.27
2022-12-27T08:30:53.038Z,1.60
2022-12-27T08:33:22.393Z,1.70
2022-12-27T08:35:53.314Z,2.40
2022-12-27T08:38:21.849Z,2.57
2022-12-27T08:40:49.838Z,1.60
2022-12-27T08:43:17.840Z,1.70
2022-12-27T08:45:45.884Z,1.17
2022-12-27T08:48:13.996Z,1.70
2022-12-27T08:50:43.405Z,1.20
2022-12-27T08:53:11.959Z,1.43
2022-12-27T08:55:39.917Z,1.50
2022-12-27T08:58:13.987Z,1.50
2022-12-27T09:00:44.225Z,1.50
2022-12-27T09:03:12.375Z,1.90
2022-12-27T09:05:42.065Z,1.37
2022-12-27T09:08:11.763Z,1.40
2022-12-27T09:10:40.164Z,1.30
2022-12-27T09:13:08.199Z,1.60
2022-12-27T09:15:36.203Z,1.57
2022-12-27T09:18:04.205Z,1.30
2022-12-27T09:20:32.313Z,1.40
2022-12-27T09:23:00.654Z,1.47
2022-12-27T09:25:30.006Z,1.60
2022-12-27T09:27:57.998Z,1.10
2022-12-27T09:30:25.960Z,1.40
2022-12-27T09:32:54.007Z,1.53
2022-12-27T09:35:21.970Z,1.90
2022-12-27T09:37:50.847Z,1.27
2022-12-27T09:40:22.376Z,1.30
2022-12-27T09:43:12.560Z,1.27
2022-12-27T09:45:48.090Z,1.70
2022-12-27T09:48:25.056Z,2.27
2022-12-27T09:50:58.788Z,1.90
2022-12-27T09:53:40.391Z,2.90
2022-12-27T09:56:12.653Z,2.00
2022-12-27T09:58:48.658Z,1.67
2022-12-27T10:01:22.069Z,1.27
2022-12-27T10:03:50.420Z,1.90
2022-12-27T10:06:59.574Z,1.60
2022-12-27T10:09:40.895Z,1.40
2022-12-27T10:12:26.627Z,1.60
2022-12-27T10:15:12.227Z,1.40
2022-12-27T10:17:53.611Z,1.50
2022-12-27T10:20:32.875Z,1.70
2022-12-27T10:23:06.678Z,1.80
2022-12-27T10:25:36.700Z,1.70
2022-12-27T10:28:15.398Z,1.77
2022-12-27T10:30:45.371Z,1.50
2022-12-27T10:33:20.555Z,1.47
2022-12-27T10:35:48.900Z,1.83
2022-12-27T10:38:16.908Z,1.50
2022-12-27T10:40:52.900Z,1.43
2022-12-27T10:43:24.633Z,1.50
2022-12-27T10:45:54.655Z,1.40
2022-12-27T10:48:24.147Z,1.53
2022-12-27T10:50:56.361Z,1.57
2022-12-27T10:53:37.010Z,1.53
2022-12-27T10:56:10.858Z,1.53
2022-12-27T10:58:41.870Z,1.70
2022-12-27T11:01:23.123Z,1.10
2022-12-27T11:03:51.252Z,1.33
2022-12-27T11:06:23.714Z,1.20
2022-12-27T11:08:53.343Z,1.20
2022-12-27T11:11:23.978Z,1.10
2022-12-27T11:13:53.113Z,1.30
2022-12-27T11:16:30.263Z,1.20
2022-12-27T11:19:25.678Z,1.67
2022-12-27T11:21:54.981Z,1.53
2022-12-27T11:24:23.668Z,1.20
2022-12-27T11:26:54.575Z,1.40
2022-12-27T11:29:26.447Z,1.50
2022-12-27T11:31:56.419Z,1.47
2022-12-27T11:34:31.078Z,1.10
2022-12-27T11:37:06.722Z,1.40
2022-12-27T11:39:43.770Z,1.50
2022-12-27T11:42:19.242Z,1.70
2022-12-27T11:44:56.499Z,1.30
2022-12-27T11:47:33.853Z,1.90
2022-12-27T11:50:15.579Z,1.63
2022-12-27T11:53:09.931Z,1.97
2022-12-27T11:56:20.473Z,1.43
2022-12-27T11:59:18.588Z,1.87
2022-12-27T12:02:26.388Z,1.23
2022-12-27T12:05:32.032Z,1.40
2022-12-27T12:08:14.613Z,1.57
2022-12-27T12:10:50.575Z,1.50
2022-12-27T12:13:47.103Z,1.47
2022-12-27T12:16:35.160Z,1.80
2022-12-27T12:19:19.651Z,1.57
2022-12-27T12:21:59.987Z,1.63
2022-12-27T12:24:56.511Z,1.50
2022-12-27T12:27:40.178Z,1.47
2022-12-27T12:30:34.147Z,1.53
2022-12-27T12:33:25.619Z,1.40
2022-12-27T12:36:15.143Z,1.87
2022-12-27T12:38:48.993Z,1.70
2022-12-27T12:41:38.442Z,1.60
2022-12-27T12:44:41.921Z,1.20
2022-12-27T12:47:22.400Z,1.10
2022-12-27T12:50:13.450Z,1.53
2022-12-27T12:53:08.745Z,1.37
2022-12-27T12:55:52.572Z,1.50
2022-12-27T12:58:49.887Z,1.47
2022-12-27T13:01:37.776Z,1.43
2022-12-27T13:04:28.731Z,1.40
2022-12-27T13:07:27.272Z,1.50
2022-12-27T13:10:15.901Z,1.60
2022-12-27T13:12:53.013Z,1.53
2022-12-27T13:15:29.337Z,1.40
2022-12-27T13:18:09.023Z,1.70
2022-12-27T13:21:05.352Z,1.87
2022-12-27T13:23:44.413Z,1.90
2022-12-27T13:26:21.263Z,1.63
2022-12-27T13:29:08.115Z,1.50
2022-12-27T13:31:45.073Z,1.50
2022-12-27T13:34:28.357Z,1.40
2022-12-27T13:37:11.885Z,1.50
2022-12-27T13:39:50.531Z,1.47
2022-12-27T13:42:44.446Z,1.47
2022-12-27T13:45:29.249Z,1.43
2022-12-27T13:48:06.042Z,1.67
2022-12-27T13:50:54.765Z,1.20
2022-12-27T13:53:51.207Z,1.40
2022-12-27T13:56:55.516Z,1.57
2022-12-27T13:59:37.772Z,1.70
2022-12-27T14:02:30.834Z,1.50
2022-12-27T14:05:35.428Z,1.50
2022-12-27T14:08:16.034Z,1.60
2022-12-27T14:10:47.779Z,1.50
2022-12-27T14:13:28.047Z,1.30
2022-12-27T14:16:26.585Z,1.57
2022-12-27T14:19:17.818Z,1.50
2022-12-27T14:22:10.391Z,1.40
2022-12-27T14:25:31.108Z,1.70
2022-12-27T14:28:37.817Z,1.60
2022-12-27T14:31:44.811Z,1.70
2022-12-27T14:34:59.086Z,1.53
2022-12-27T14:37:46.388Z,1.70
2022-12-27T14:40:57.614Z,1.80
2022-12-27T14:44:07.157Z,2.00
2022-12-27T14:47:07.034Z,1.70
2022-12-27T14:50:19.760Z,1.83
2022-12-27T14:53:20.279Z,1.77
2022-12-27T14:56:03.513Z,2.00
2022-12-27T14:58:51.268Z,1.83
2022-12-27T15:01:39.277Z,1.70
2022-12-27T15:04:29.964Z,1.43
2022-12-27T15:07:22.152Z,2.10
2022-12-27T15:09:58.703Z,1.57
2022-12-27T15:12:39.510Z,1.87
2022-12-27T15:15:22.316Z,1.60
2022-12-27T15:18:05.591Z,2.60
2022-12-27T15:21:03.445Z,2.20
2022-12-27T15:23:38.061Z,1.50
2022-12-27T15:26:18.820Z,1.80
2022-12-27T15:29:05.183Z,1.70
2022-12-27T15:31:38.885Z,1.70
2022-12-27T15:34:24.989Z,1.80
2022-12-27T15:36:53.319Z,1.47
2022-12-27T15:39:46.947Z,1.70
2022-12-27T15:42:48.548Z,1.77
2022-12-27T15:45:33.554Z,1.50
2022-12-27T15:48:42.713Z,1.30
2022-12-27T15:51:18.739Z,1.70
2022-12-27T15:54:04.370Z,1.60
2022-12-27T15:56:58.404Z,1.30
2022-12-27T15:59:41.334Z,1.50
2022-12-27T16:02:32.874Z,1.53
2022-12-27T16:05:12.075Z,2.17
2022-12-27T16:07:46.148Z,1.83
2022-12-27T16:10:47.927Z,2.60
2022-12-27T16:13:24.019Z,2.10
2022-12-27T16:15:55.012Z,1.50
2022-12-27T16:18:56.972Z,1.80
2022-12-27T16:21:26.009Z,1.70
2022-12-27T16:24:05.844Z,2.30
2022-12-27T16:29:13.557Z,1.73
2022-12-27T16:31:50.336Z,1.80
2022-12-27T16:34:25.298Z,1.70
2022-12-27T16:36:56.083Z,1.57
2022-12-27T16:39:52.387Z,1.47
2022-12-27T16:42:28.353Z,1.60
2022-12-27T16:45:04.010Z,1.10
2022-12-27T16:47:48.666Z,1.30
2022-12-27T16:50:46.741Z,1.00
2022-12-27T16:53:33.056Z,1.00
2022-12-27T16:56:20.997Z,1.10
2022-12-27T16:58:49.303Z,1.50
2022-12-27T17:01:45.148Z,1.70
2022-12-27T17:04:53.023Z,1.90
2022-12-27T17:07:51.667Z,1.40
2022-12-27T17:11:00.769Z,1.70
2022-12-27T17:13:36.236Z,1.10
2022-12-27T17:16:08.651Z,1.60
2022-12-27T17:18:39.596Z,1.40
2022-12-27T17:21:09.732Z,1.40
2022-12-27T17:23:44.831Z,1.77
2022-12-27T17:26:45.428Z,1.40
2022-12-27T17:29:38.197Z,1.17
2022-12-27T17:32:20.885Z,1.40
2022-12-27T17:34:55.684Z,6.90
2022-12-27T17:37:31.989Z,2.77
2022-12-27T17:40:13.154Z,2.00
2022-12-27T17:43:12.710Z,1.80
2022-12-27T17:45:49.774Z,1.73
2022-12-27T17:48:26.413Z,1.90
2022-12-27T17:50:59.001Z,1.87
2022-12-27T17:53:44.288Z,2.10
2022-12-27T17:56:35.633Z,4.17
2022-12-27T17:59:10.069Z,3.13
2022-12-27T18:01:43.508Z,2.40
2022-12-27T18:04:19.798Z,2.67
2022-12-27T18:06:48.032Z,2.27
2022-12-27T18:09:28.394Z,2.40
2022-12-27T18:11:57.832Z,2.10
2022-12-27T18:14:25.870Z,2.10
2022-12-27T18:16:53.870Z,2.30
2022-12-27T18:19:22.094Z,2.67
2022-12-27T18:21:56.805Z,2.50
2022-12-27T18:24:30.764Z,3.53
2022-12-27T18:27:05.540Z,3.80
2022-12-27T18:29:33.883Z,3.30
2022-12-27T18:32:05.547Z,3.50
2022-12-27T18:34:37.972Z,3.17
2022-12-27T18:37:09.347Z,2.20
2022-12-27T18:39:39.915Z,2.60
2022-12-27T18:42:18.460Z,2.07
2022-12-27T18:44:49.086Z,2.20
2022-12-27T18:47:22.218Z,2.23
2022-12-27T18:49:55.102Z,1.97
2022-12-27T18:52:27.146Z,2.10
2022-12-27T18:54:55.596Z,2.53
2022-12-27T18:57:35.265Z,2.23
2022-12-27T19:00:14.374Z,2.20
2022-12-27T19:02:43.418Z,2.23
2022-12-27T19:05:27.242Z,2.17
2022-12-27T19:08:03.365Z,3.17
2022-12-27T19:10:33.518Z,2.50
2022-12-27T19:13:03.752Z,2.70
2022-12-27T19:15:40.168Z,2.60
2022-12-27T19:18:20.951Z,2.20
2022-12-27T19:20:55.782Z,2.60
2022-12-27T19:23:33.565Z,2.53
2022-12-27T19:26:08.840Z,2.27
2022-12-27T19:28:44.528Z,2.47
2022-12-27T19:31:19.903Z,2.17
2022-12-27T19:33:51.674Z,2.40
2022-12-27T19:36:24.981Z,2.50
2022-12-27T19:38:53.679Z,2.07
2022-12-27T19:41:21.934Z,2.30
2022-12-27T19:43:51.760Z,2.23
2022-12-27T19:46:20.073Z,2.73
2022-12-27T19:49:23.229Z,2.40
2022-12-27T19:51:37.753Z,2.50
2022-12-27T19:54:08.315Z,2.40
2022-12-27T19:56:36.315Z,2.90
2022-12-27T19:59:05.736Z,2.77
2022-12-27T20:01:34.940Z,2.03
2022-12-27T20:04:03.036Z,2.20
2022-12-27T20:06:31.006Z,2.20
2022-12-27T20:08:59.202Z,1.93
2022-12-27T20:11:27.769Z,3.60
2022-12-27T20:13:55.864Z,3.03
2022-12-27T20:16:25.288Z,2.67
2022-12-27T20:18:54.074Z,2.33
2022-12-27T20:21:22.638Z,2.27
2022-12-27T20:23:51.063Z,1.80
2022-12-27T20:26:21.237Z,2.50
2022-12-27T20:28:49.976Z,2.10
2022-12-27T20:31:20.137Z,2.10
2022-12-27T20:33:53.665Z,2.37
2022-12-27T20:36:21.827Z,2.27
2022-12-27T20:38:50.191Z,2.30
2022-12-27T20:41:20.279Z,1.87
2022-12-27T20:43:48.538Z,1.93
2022-12-27T20:46:18.643Z,2.17
2022-12-27T20:48:48.170Z,1.50
2022-12-27T20:51:19.521Z,1.80
2022-12-27T20:53:49.151Z,1.87
2022-12-27T20:56:17.915Z,2.17
2022-12-27T20:58:45.957Z,2.40
2022-12-27T21:01:15.707Z,1.93
2022-12-27T21:03:44.560Z,1.60
2022-12-27T21:06:15.186Z,1.93
2022-12-27T21:08:49.010Z,1.90
2022-12-27T21:11:19.144Z,1.67
2022-12-27T21:13:48.119Z,2.00
2022-12-27T21:16:18.587Z,2.10
2022-12-27T21:18:47.002Z,2.37
2022-12-27T21:21:19.568Z,1.80
2022-12-27T21:23:50.673Z,2.10
2022-12-27T21:26:20.673Z,1.80
2022-12-27T21:28:49.050Z,1.80
2022-12-27T21:31:18.228Z,1.57
2022-12-27T21:33:46.856Z,2.20
2022-12-27T21:36:16.325Z,1.90
2022-12-27T21:38:44.447Z,1.80
2022-12-27T21:41:15.691Z,1.93
2022-12-27T21:43:44.891Z,2.30
2022-12-27T21:46:15.949Z,1.70
2022-12-27T21:48:44.525Z,1.77
2022-12-27T21:51:14.769Z,2.23
2022-12-27T21:53:43.652Z,2.30
2022-12-27T21:56:14.134Z,1.60
2022-12-27T21:58:43.027Z,1.50
2022-12-27T22:01:14.352Z,2.20
2022-12-27T22:03:44.270Z,1.80
2022-12-27T22:06:14.156Z,1.80
2022-12-27T22:08:42.919Z,1.90
2022-12-27T22:11:13.066Z,1.80
2022-12-27T22:13:43.086Z,1.90
2022-12-27T22:16:14.578Z,1.77
2022-12-27T22:18:43.016Z,1.77
2022-12-27T22:21:12.609Z,1.73
2022-12-27T22:23:43.493Z,1.90
2022-12-27T22:26:14.532Z,2.40
2022-12-27T22:28:43.024Z,1.53
2022-12-27T22:31:12.937Z,1.67
2022-12-27T22:33:41.585Z,1.77
2022-12-27T22:36:12.789Z,1.50
2022-12-27T22:38:40.864Z,1.50
2022-12-27T22:41:11.400Z,1.93
2022-12-27T22:43:41.206Z,1.70
2022-12-27T22:46:10.803Z,1.70
2022-12-27T22:48:39.366Z,1.90
2022-12-27T22:51:09.386Z,1.40
2022-12-27T22:53:37.618Z,1.77
2022-12-27T22:56:05.641Z,2.10
2022-12-27T22:58:33.665Z,1.47
2022-12-27T23:01:03.051Z,1.80
2022-12-27T23:03:31.012Z,1.50
2022-12-27T23:06:00.362Z,1.77
2022-12-27T23:08:28.503Z,1.33
2022-12-27T23:11:03.331Z,2.10
2022-12-27T23:13:31.399Z,1.70
2022-12-27T23:16:00.418Z,1.73
2022-12-27T23:18:30.317Z,1.60
2022-12-27T23:21:20.803Z,1.57
2022-12-27T23:23:47.283Z,1.60
2022-12-27T23:26:17.146Z,1.73
2022-12-27T23:28:46.433Z,1.80
2022-12-27T23:31:15.240Z,1.97
2022-12-27T23:33:50.919Z,1.87
2022-12-27T23:36:19.265Z,1.70
2022-12-27T23:38:47.357Z,2.00
2022-12-27T23:41:17.187Z,2.33
2022-12-27T23:43:54.188Z,1.80
2022-12-27T23:46:25.096Z,1.93
2022-12-27T23:48:55.044Z,1.83
2022-12-27T23:51:23.879Z,1.97
2022-12-27T23:53:52.431Z,1.67
2022-12-27T23:56:23.100Z,1.73
2022-12-27T23:58:53.362Z,1.70
